sensor_id;sensor_type;location;lat;lon;timestamp;pressure;altitude;pressure_sealevel;temperature;humidity
57885;BME280;43703;51.060;-0.086;2023-04-04T00:02:06;101382.72;;;1.49;54.42
57885;BME280;43703;51.060;-0.086;2023-04-04T00:04:31;101382.93;;;2.47;53.87
57885;BME280;43703;51.060;-0.086;2023-04-04T00:06:56;101380.58;;;2.80;53.28
57885;BME280;43703;51.060;-0.086;2023-04-04T00:09:21;101376.81;;;2.44;53.35
57885;BME280;43703;51.060;-0.086;2023-04-04T00:11:46;101373.64;;;2.64;52.89
57885;BME280;43703;51.060;-0.086;2023-04-04T00:14:11;101368.01;;;2.91;52.96
57885;BME280;43703;51.060;-0.086;2023-04-04T00:16:37;101365.27;;;1.94;53.45
57885;BME280;43703;51.060;-0.086;2023-04-04T00:19:02;101367.28;;;1.52;54.71
57885;BME280;43703;51.060;-0.086;2023-04-04T00:21:27;101367.41;;;1.95;53.97
57885;BME280;43703;51.060;-0.086;2023-04-04T00:23:52;101359.26;;;2.15;53.79
57885;BME280;43703;51.060;-0.086;2023-04-04T00:26:18;101355.90;;;2.07;53.75
57885;BME280;43703;51.060;-0.086;2023-04-04T00:28:43;101350.75;;;1.83;53.72
57885;BME280;43703;51.060;-0.086;2023-04-04T00:31:08;101349.98;;;1.96;55.05
57885;BME280;43703;51.060;-0.086;2023-04-04T00:33:33;101343.03;;;1.27;54.75
57885;BME280;43703;51.060;-0.086;2023-04-04T00:35:58;101344.28;;;1.84;54.65
57885;BME280;43703;51.060;-0.086;2023-04-04T00:38:23;101342.48;;;1.89;54.66
57885;BME280;43703;51.060;-0.086;2023-04-04T00:40:49;101337.15;;;2.14;54.39
57885;BME280;43703;51.060;-0.086;2023-04-04T00:43:14;101343.54;;;2.19;54.65
57885;BME280;43703;51.060;-0.086;2023-04-04T00:45:39;101347.00;;;1.92;54.81
57885;BME280;43703;51.060;-0.086;2023-04-04T00:48:04;101348.76;;;0.95;55.80
57885;BME280;43703;51.060;-0.086;2023-04-04T00:50:29;101343.76;;;1.28;55.31
57885;BME280;43703;51.060;-0.086;2023-04-04T00:52:55;101346.29;;;1.34;55.11
57885;BME280;43703;51.060;-0.086;2023-04-04T00:55:20;101343.81;;;1.34;56.10
57885;BME280;43703;51.060;-0.086;2023-04-04T00:57:46;101343.95;;;1.70;54.49
57885;BME280;43703;51.060;-0.086;2023-04-04T01:00:13;101342.07;;;2.41;54.32
57885;BME280;43703;51.060;-0.086;2023-04-04T01:02:36;101341.22;;;0.86;54.49
57885;BME280;43703;51.060;-0.086;2023-04-04T01:05:02;101339.61;;;1.06;55.32
57885;BME280;43703;51.060;-0.086;2023-04-04T01:07:26;101339.31;;;0.92;55.36
57885;BME280;43703;51.060;-0.086;2023-04-04T01:09:55;101334.43;;;1.05;55.57
57885;BME280;43703;51.060;-0.086;2023-04-04T01:12:17;101328.24;;;0.92;55.38
57885;BME280;43703;51.060;-0.086;2023-04-04T01:14:43;101318.11;;;0.77;55.60
57885;BME280;43703;51.060;-0.086;2023-04-04T01:17:08;101315.14;;;1.32;55.42
57885;BME280;43703;51.060;-0.086;2023-04-04T01:19:36;101313.08;;;1.56;54.75
57885;BME280;43703;51.060;-0.086;2023-04-04T01:21:58;101305.77;;;1.00;55.13
57885;BME280;43703;51.060;-0.086;2023-04-04T01:24:25;101305.73;;;0.39;56.18
57885;BME280;43703;51.060;-0.086;2023-04-04T01:26:49;101300.77;;;1.29;54.61
57885;BME280;43703;51.060;-0.086;2023-04-04T01:29:14;101299.20;;;1.63;55.11
57885;BME280;43703;51.060;-0.086;2023-04-04T01:31:42;101294.68;;;1.03;55.06
57885;BME280;43703;51.060;-0.086;2023-04-04T01:34:11;101295.24;;;1.25;55.40
57885;BME280;43703;51.060;-0.086;2023-04-04T01:36:34;101294.14;;;1.46;56.05
57885;BME280;43703;51.060;-0.086;2023-04-04T01:39:01;101289.74;;;2.24;56.03
57885;BME280;43703;51.060;-0.086;2023-04-04T01:41:20;101291.25;;;0.52;55.92
57885;BME280;43703;51.060;-0.086;2023-04-04T01:43:46;101292.59;;;1.10;55.86
57885;BME280;43703;51.060;-0.086;2023-04-04T01:46:10;101292.63;;;1.77;54.78
57885;BME280;43703;51.060;-0.086;2023-04-04T01:48:36;101293.75;;;1.94;54.59
57885;BME280;43703;51.060;-0.086;2023-04-04T01:51:04;101294.70;;;1.93;54.07
57885;BME280;43703;51.060;-0.086;2023-04-04T01:53:27;101297.68;;;0.75;55.52
57885;BME280;43703;51.060;-0.086;2023-04-04T01:55:52;101297.34;;;1.57;56.41
57885;BME280;43703;51.060;-0.086;2023-04-04T01:58:17;101298.52;;;1.11;55.57
57885;BME280;43703;51.060;-0.086;2023-04-04T02:00:43;101301.79;;;1.96;54.61
57885;BME280;43703;51.060;-0.086;2023-04-04T02:03:08;101299.51;;;1.84;53.72
57885;BME280;43703;51.060;-0.086;2023-04-04T02:05:33;101304.21;;;1.71;54.57
57885;BME280;43703;51.060;-0.086;2023-04-04T02:07:58;101303.29;;;1.74;55.18
57885;BME280;43703;51.060;-0.086;2023-04-04T02:10:24;101305.91;;;2.63;54.55
57885;BME280;43703;51.060;-0.086;2023-04-04T02:12:52;101304.31;;;1.71;54.72
57885;BME280;43703;51.060;-0.086;2023-04-04T02:15:16;101300.05;;;1.73;54.42
57885;BME280;43703;51.060;-0.086;2023-04-04T02:17:41;101297.63;;;1.99;55.40
57885;BME280;43703;51.060;-0.086;2023-04-04T02:20:07;101297.23;;;1.47;55.14
57885;BME280;43703;51.060;-0.086;2023-04-04T02:22:31;101294.27;;;1.98;55.09
57885;BME280;43703;51.060;-0.086;2023-04-04T02:24:56;101295.53;;;1.85;56.22
57885;BME280;43703;51.060;-0.086;2023-04-04T02:27:21;101295.24;;;1.81;56.81
57885;BME280;43703;51.060;-0.086;2023-04-04T02:29:47;101297.66;;;1.61;56.78
57885;BME280;43703;51.060;-0.086;2023-04-04T02:32:12;101295.42;;;1.33;57.64
57885;BME280;43703;51.060;-0.086;2023-04-04T02:34:37;101296.02;;;1.47;56.38
57885;BME280;43703;51.060;-0.086;2023-04-04T02:37:02;101296.10;;;0.96;56.43
57885;BME280;43703;51.060;-0.086;2023-04-04T02:39:27;101299.74;;;1.04;56.36
57885;BME280;43703;51.060;-0.086;2023-04-04T02:41:52;101300.09;;;0.80;57.05
57885;BME280;43703;51.060;-0.086;2023-04-04T02:44:17;101302.78;;;1.00;58.32
57885;BME280;43703;51.060;-0.086;2023-04-04T02:46:43;101295.28;;;0.87;58.57
57885;BME280;43703;51.060;-0.086;2023-04-04T02:49:09;101297.91;;;0.63;57.62
57885;BME280;43703;51.060;-0.086;2023-04-04T02:51:33;101299.64;;;0.82;58.18
57885;BME280;43703;51.060;-0.086;2023-04-04T02:53:59;101300.01;;;0.97;58.95
57885;BME280;43703;51.060;-0.086;2023-04-04T02:56:24;101303.16;;;0.69;58.26
57885;BME280;43703;51.060;-0.086;2023-04-04T02:58:50;101302.62;;;0.97;59.40
57885;BME280;43703;51.060;-0.086;2023-04-04T03:01:15;101303.11;;;0.58;58.30
57885;BME280;43703;51.060;-0.086;2023-04-04T03:03:40;101298.20;;;0.22;58.59
57885;BME280;43703;51.060;-0.086;2023-04-04T03:06:06;101296.42;;;0.63;58.60
57885;BME280;43703;51.060;-0.086;2023-04-04T03:08:31;101295.29;;;0.34;59.28
57885;BME280;43703;51.060;-0.086;2023-04-04T03:10:57;101292.12;;;0.49;59.12
57885;BME280;43703;51.060;-0.086;2023-04-04T03:13:22;101292.14;;;0.46;60.01
57885;BME280;43703;51.060;-0.086;2023-04-04T03:15:47;101292.15;;;0.12;59.67
57885;BME280;43703;51.060;-0.086;2023-04-04T03:18:13;101294.21;;;-0.09;59.60
57885;BME280;43703;51.060;-0.086;2023-04-04T03:20:38;101294.20;;;-0.40;60.04
57885;BME280;43703;51.060;-0.086;2023-04-04T03:23:03;101291.50;;;0.34;61.02
57885;BME280;43703;51.060;-0.086;2023-04-04T03:25:28;101294.36;;;0.46;60.78
57885;BME280;43703;51.060;-0.086;2023-04-04T03:27:54;101296.66;;;0.81;61.04
57885;BME280;43703;51.060;-0.086;2023-04-04T03:30:19;101294.83;;;0.23;60.44
57885;BME280;43703;51.060;-0.086;2023-04-04T03:32:45;101293.16;;;0.32;60.83
57885;BME280;43703;51.060;-0.086;2023-04-04T03:35:11;101293.74;;;-0.02;59.70
57885;BME280;43703;51.060;-0.086;2023-04-04T03:37:36;101295.39;;;-0.01;60.26
57885;BME280;43703;51.060;-0.086;2023-04-04T03:40:01;101298.22;;;0.28;60.96
57885;BME280;43703;51.060;-0.086;2023-04-04T03:42:32;101301.44;;;0.48;61.45
57885;BME280;43703;51.060;-0.086;2023-04-04T03:44:51;101303.55;;;0.07;60.94
57885;BME280;43703;51.060;-0.086;2023-04-04T03:47:16;101304.36;;;0.49;61.09
57885;BME280;43703;51.060;-0.086;2023-04-04T03:49:42;101307.57;;;-0.25;60.49
57885;BME280;43703;51.060;-0.086;2023-04-04T03:52:07;101309.76;;;-0.07;61.65
57885;BME280;43703;51.060;-0.086;2023-04-04T03:54:32;101308.20;;;0.27;60.50
57885;BME280;43703;51.060;-0.086;2023-04-04T03:56:58;101303.80;;;-0.01;60.85
57885;BME280;43703;51.060;-0.086;2023-04-04T03:59:23;101297.73;;;0.18;61.47
57885;BME280;43703;51.060;-0.086;2023-04-04T04:01:48;101296.80;;;0.39;61.20
57885;BME280;43703;51.060;-0.086;2023-04-04T04:04:13;101294.33;;;0.29;60.77
57885;BME280;43703;51.060;-0.086;2023-04-04T04:06:38;101293.35;;;0.72;60.47
57885;BME280;43703;51.060;-0.086;2023-04-04T04:09:04;101292.13;;;0.15;60.74
57885;BME280;43703;51.060;-0.086;2023-04-04T04:11:29;101293.90;;;0.38;61.14
57885;BME280;43703;51.060;-0.086;2023-04-04T04:13:54;101294.76;;;0.18;59.91
57885;BME280;43703;51.060;-0.086;2023-04-04T04:16:19;101296.85;;;0.19;60.83
57885;BME280;43703;51.060;-0.086;2023-04-04T04:18:44;101302.77;;;-0.21;60.54
57885;BME280;43703;51.060;-0.086;2023-04-04T04:21:09;101303.16;;;0.47;60.91
57885;BME280;43703;51.060;-0.086;2023-04-04T04:23:35;101304.98;;;0.20;60.39
57885;BME280;43703;51.060;-0.086;2023-04-04T04:26:00;101307.62;;;0.34;61.04
57885;BME280;43703;51.060;-0.086;2023-04-04T04:28:26;101305.22;;;0.29;59.95
57885;BME280;43703;51.060;-0.086;2023-04-04T04:30:51;101308.02;;;0.02;60.05
57885;BME280;43703;51.060;-0.086;2023-04-04T04:33:16;101307.24;;;0.78;61.18
57885;BME280;43703;51.060;-0.086;2023-04-04T04:35:41;101310.92;;;0.70;61.23
57885;BME280;43703;51.060;-0.086;2023-04-04T04:38:06;101308.85;;;0.54;60.94
57885;BME280;43703;51.060;-0.086;2023-04-04T04:40:31;101307.05;;;-0.03;59.71
57885;BME280;43703;51.060;-0.086;2023-04-04T04:42:56;101301.73;;;0.46;61.55
57885;BME280;43703;51.060;-0.086;2023-04-04T04:45:22;101300.86;;;0.42;60.88
57885;BME280;43703;51.060;-0.086;2023-04-04T04:47:47;101300.57;;;0.58;61.22
57885;BME280;43703;51.060;-0.086;2023-04-04T04:50:13;101300.83;;;-0.15;60.55
57885;BME280;43703;51.060;-0.086;2023-04-04T04:52:38;101303.46;;;-0.13;61.20
57885;BME280;43703;51.060;-0.086;2023-04-04T04:55:04;101305.31;;;0.28;61.97
57885;BME280;43703;51.060;-0.086;2023-04-04T04:57:29;101311.12;;;-0.01;62.04
57885;BME280;43703;51.060;-0.086;2023-04-04T04:59:54;101312.06;;;-0.05;61.56
57885;BME280;43703;51.060;-0.086;2023-04-04T05:02:20;101315.94;;;0.30;61.61
57885;BME280;43703;51.060;-0.086;2023-04-04T05:04:45;101316.87;;;-0.49;60.86
57885;BME280;43703;51.060;-0.086;2023-04-04T05:07:10;101320.60;;;0.47;61.62
57885;BME280;43703;51.060;-0.086;2023-04-04T05:09:35;101323.67;;;0.71;61.79
57885;BME280;43703;51.060;-0.086;2023-04-04T05:12:01;101322.02;;;-0.07;61.21
57885;BME280;43703;51.060;-0.086;2023-04-04T05:14:26;101321.02;;;0.51;61.78
57885;BME280;43703;51.060;-0.086;2023-04-04T05:16:51;101321.52;;;0.73;61.89
57885;BME280;43703;51.060;-0.086;2023-04-04T05:19:16;101320.66;;;1.19;61.21
57885;BME280;43703;51.060;-0.086;2023-04-04T05:21:41;101324.23;;;0.92;61.06
57885;BME280;43703;51.060;-0.086;2023-04-04T05:24:07;101325.42;;;0.13;60.79
57885;BME280;43703;51.060;-0.086;2023-04-04T05:26:32;101323.81;;;0.29;60.42
57885;BME280;43703;51.060;-0.086;2023-04-04T05:28:57;101325.31;;;-0.76;62.03
57885;BME280;43703;51.060;-0.086;2023-04-04T05:31:22;101323.08;;;-0.29;61.28
57885;BME280;43703;51.060;-0.086;2023-04-04T05:33:47;101326.73;;;0.64;61.19
57885;BME280;43703;51.060;-0.086;2023-04-04T05:36:12;101328.36;;;0.55;61.47
57885;BME280;43703;51.060;-0.086;2023-04-04T05:38:38;101324.88;;;0.10;60.62
57885;BME280;43703;51.060;-0.086;2023-04-04T05:41:04;101318.95;;;0.56;61.50
57885;BME280;43703;51.060;-0.086;2023-04-04T05:43:29;101317.80;;;0.33;61.22
57885;BME280;43703;51.060;-0.086;2023-04-04T05:45:54;101315.66;;;-0.28;60.78
57885;BME280;43703;51.060;-0.086;2023-04-04T05:48:19;101314.46;;;-0.51;60.59
57885;BME280;43703;51.060;-0.086;2023-04-04T05:50:45;101311.38;;;-0.52;62.23
57885;BME280;43703;51.060;-0.086;2023-04-04T05:53:10;101313.63;;;-0.46;61.81
57885;BME280;43703;51.060;-0.086;2023-04-04T05:55:36;101314.87;;;-0.23;61.39
57885;BME280;43703;51.060;-0.086;2023-04-04T05:58:01;101315.82;;;-0.05;61.61
57885;BME280;43703;51.060;-0.086;2023-04-04T06:00:26;101317.05;;;0.06;61.72
57885;BME280;43703;51.060;-0.086;2023-04-04T06:02:52;101316.96;;;-0.05;62.07
57885;BME280;43703;51.060;-0.086;2023-04-04T06:05:17;101320.80;;;-0.04;62.04
57885;BME280;43703;51.060;-0.086;2023-04-04T06:07:43;101324.70;;;0.27;61.83
57885;BME280;43703;51.060;-0.086;2023-04-04T06:10:08;101331.23;;;-0.33;61.42
57885;BME280;43703;51.060;-0.086;2023-04-04T06:12:33;101329.87;;;-0.01;60.98
57885;BME280;43703;51.060;-0.086;2023-04-04T06:14:58;101329.92;;;0.65;61.67
57885;BME280;43703;51.060;-0.086;2023-04-04T06:17:24;101335.66;;;1.05;60.82
57885;BME280;43703;51.060;-0.086;2023-04-04T06:19:50;101338.47;;;0.35;61.20
57885;BME280;43703;51.060;-0.086;2023-04-04T06:22:15;101342.31;;;0.10;60.32
57885;BME280;43703;51.060;-0.086;2023-04-04T06:24:41;101346.83;;;1.44;60.87
57885;BME280;43703;51.060;-0.086;2023-04-04T06:27:06;101351.23;;;1.06;59.93
57885;BME280;43703;51.060;-0.086;2023-04-04T06:29:31;101350.70;;;1.11;60.26
57885;BME280;43703;51.060;-0.086;2023-04-04T06:31:56;101354.23;;;1.75;59.75
57885;BME280;43703;51.060;-0.086;2023-04-04T06:34:21;101358.82;;;0.70;58.16
57885;BME280;43703;51.060;-0.086;2023-04-04T06:36:46;101362.63;;;1.72;60.02
57885;BME280;43703;51.060;-0.086;2023-04-04T06:39:12;101360.59;;;0.73;58.33
57885;BME280;43703;51.060;-0.086;2023-04-04T06:41:37;101363.65;;;1.97;58.74
57885;BME280;43703;51.060;-0.086;2023-04-04T06:44:02;101367.07;;;1.82;59.38
57885;BME280;43703;51.060;-0.086;2023-04-04T06:46:29;101367.91;;;1.19;59.29
57885;BME280;43703;51.060;-0.086;2023-04-04T06:48:53;101370.97;;;0.87;58.22
57885;BME280;43703;51.060;-0.086;2023-04-04T06:51:18;101374.21;;;1.23;58.83
57885;BME280;43703;51.060;-0.086;2023-04-04T06:53:44;101373.03;;;0.98;58.63
57885;BME280;43703;51.060;-0.086;2023-04-04T06:56:09;101372.06;;;1.63;58.43
57885;BME280;43703;51.060;-0.086;2023-04-04T06:58:34;101376.65;;;2.12;59.51
57885;BME280;43703;51.060;-0.086;2023-04-04T07:01:00;101376.50;;;1.59;57.41
57885;BME280;43703;51.060;-0.086;2023-04-04T07:03:25;101379.81;;;1.89;56.91
57885;BME280;43703;51.060;-0.086;2023-04-04T07:05:49;101377.33;;;1.28;57.41
57885;BME280;43703;51.060;-0.086;2023-04-04T07:08:14;101376.48;;;1.84;55.36
57885;BME280;43703;51.060;-0.086;2023-04-04T07:10:40;101378.16;;;1.96;57.92
57885;BME280;43703;51.060;-0.086;2023-04-04T07:13:05;101374.59;;;3.54;59.53
57885;BME280;43703;51.060;-0.086;2023-04-04T07:15:30;101376.18;;;3.60;51.09
57885;BME280;43703;51.060;-0.086;2023-04-04T07:17:55;101374.95;;;6.59;54.93
57885;BME280;43703;51.060;-0.086;2023-04-04T07:20:20;101371.49;;;7.53;55.91
57885;BME280;43703;51.060;-0.086;2023-04-04T07:22:47;101368.32;;;9.09;55.35
57885;BME280;43703;51.060;-0.086;2023-04-04T07:25:12;101364.16;;;7.68;42.95
57885;BME280;43703;51.060;-0.086;2023-04-04T07:27:37;101357.28;;;10.19;46.50
57885;BME280;43703;51.060;-0.086;2023-04-04T07:30:03;101357.77;;;11.51;46.49
57885;BME280;43703;51.060;-0.086;2023-04-04T07:32:28;101357.77;;;9.82;43.23
57885;BME280;43703;51.060;-0.086;2023-04-04T07:34:53;101356.55;;;8.61;41.37
57885;BME280;43703;51.060;-0.086;2023-04-04T07:37:19;101353.15;;;10.56;37.69
57885;BME280;43703;51.060;-0.086;2023-04-04T07:39:44;101350.33;;;12.01;36.93
57885;BME280;43703;51.060;-0.086;2023-04-04T07:42:10;101355.21;;;13.00;37.95
57885;BME280;43703;51.060;-0.086;2023-04-04T07:44:35;101359.13;;;11.40;34.34
57885;BME280;43703;51.060;-0.086;2023-04-04T07:47:00;101359.05;;;10.52;41.83
57885;BME280;43703;51.060;-0.086;2023-04-04T07:49:26;101359.62;;;12.68;36.83
57885;BME280;43703;51.060;-0.086;2023-04-04T07:51:51;101355.56;;;13.29;34.73
57885;BME280;43703;51.060;-0.086;2023-04-04T07:54:16;101354.41;;;14.85;32.75
57885;BME280;43703;51.060;-0.086;2023-04-04T07:56:41;101357.77;;;14.08;34.29
57885;BME280;43703;51.060;-0.086;2023-04-04T07:59:06;101361.24;;;13.73;32.49
57885;BME280;43703;51.060;-0.086;2023-04-04T08:01:31;101357.05;;;15.02;30.94
57885;BME280;43703;51.060;-0.086;2023-04-04T08:03:56;101354.35;;;12.99;33.05
57885;BME280;43703;51.060;-0.086;2023-04-04T08:06:21;101353.23;;;12.52;33.36
57885;BME280;43703;51.060;-0.086;2023-04-04T08:08:47;101356.36;;;11.66;37.96
57885;BME280;43703;51.060;-0.086;2023-04-04T08:11:12;101346.86;;;14.39;33.35
57885;BME280;43703;51.060;-0.086;2023-04-04T08:13:38;101352.53;;;10.21;33.81
57885;BME280;43703;51.060;-0.086;2023-04-04T08:16:04;101349.22;;;13.54;32.59
57885;BME280;43703;51.060;-0.086;2023-04-04T08:18:30;101347.67;;;12.65;31.27
57885;BME280;43703;51.060;-0.086;2023-04-04T08:20:55;101339.61;;;15.25;29.46
57885;BME280;43703;51.060;-0.086;2023-04-04T08:23:21;101338.49;;;14.29;30.01
57885;BME280;43703;51.060;-0.086;2023-04-04T08:25:47;101342.28;;;14.98;29.13
57885;BME280;43703;51.060;-0.086;2023-04-04T08:28:13;101333.53;;;17.94;30.04
57885;BME280;43703;51.060;-0.086;2023-04-04T08:30:39;101330.04;;;16.92;26.66
57885;BME280;43703;51.060;-0.086;2023-04-04T08:33:04;101337.73;;;14.76;29.11
57885;BME280;43703;51.060;-0.086;2023-04-04T08:35:30;101340.15;;;14.75;29.44
57885;BME280;43703;51.060;-0.086;2023-04-04T08:37:56;101345.89;;;14.29;29.14
57885;BME280;43703;51.060;-0.086;2023-04-04T08:40:22;101344.70;;;11.64;31.55
57885;BME280;43703;51.060;-0.086;2023-04-04T08:42:49;101340.51;;;12.01;30.51
57885;BME280;43703;51.060;-0.086;2023-04-04T08:45:16;101340.85;;;13.24;29.57
57885;BME280;43703;51.060;-0.086;2023-04-04T08:47:40;101340.63;;;15.03;27.88
57885;BME280;43703;51.060;-0.086;2023-04-04T08:50:07;101339.85;;;15.38;29.10
57885;BME280;43703;51.060;-0.086;2023-04-04T08:52:32;101342.50;;;14.78;27.03
57885;BME280;43703;51.060;-0.086;2023-04-04T08:54:58;101337.11;;;13.90;29.06
57885;BME280;43703;51.060;-0.086;2023-04-04T08:57:23;101335.30;;;16.02;25.74
57885;BME280;43703;51.060;-0.086;2023-04-04T08:59:48;101336.61;;;13.63;27.36
57885;BME280;43703;51.060;-0.086;2023-04-04T09:02:18;101339.76;;;11.85;29.63
57885;BME280;43703;51.060;-0.086;2023-04-04T09:04:39;101340.58;;;15.33;27.88
57885;BME280;43703;51.060;-0.086;2023-04-04T09:07:05;101338.66;;;17.14;27.07
57885;BME280;43703;51.060;-0.086;2023-04-04T09:09:31;101341.40;;;19.26;27.12
57885;BME280;43703;51.060;-0.086;2023-04-04T09:11:56;101342.61;;;20.22;22.39
57885;BME280;43703;51.060;-0.086;2023-04-04T09:14:24;101344.22;;;19.42;25.37
57885;BME280;43703;51.060;-0.086;2023-04-04T09:16:48;101341.11;;;20.46;24.48
57885;BME280;43703;51.060;-0.086;2023-04-04T09:19:14;101342.90;;;17.04;24.30
57885;BME280;43703;51.060;-0.086;2023-04-04T09:21:45;101334.61;;;20.37;24.15
57885;BME280;43703;51.060;-0.086;2023-04-04T09:24:06;101334.84;;;21.40;23.27
57885;BME280;43703;51.060;-0.086;2023-04-04T09:28:57;101340.21;;;18.82;26.03
57885;BME280;43703;51.060;-0.086;2023-04-04T09:31:23;101337.53;;;18.74;25.57
57885;BME280;43703;51.060;-0.086;2023-04-04T09:33:49;101333.62;;;18.85;23.89
57885;BME280;43703;51.060;-0.086;2023-04-04T09:36:14;101331.49;;;19.54;25.14
57885;BME280;43703;51.060;-0.086;2023-04-04T09:38:41;101345.88;;;18.48;25.09
57885;BME280;43703;51.060;-0.086;2023-04-04T09:41:06;101341.58;;;15.36;27.72
57885;BME280;43703;51.060;-0.086;2023-04-04T09:43:31;101341.74;;;18.59;25.37
57885;BME280;43703;51.060;-0.086;2023-04-04T09:45:58;101334.49;;;19.83;25.42
57885;BME280;43703;51.060;-0.086;2023-04-04T09:48:29;101332.71;;;20.15;23.85
57885;BME280;43703;51.060;-0.086;2023-04-04T09:50:49;101334.94;;;21.94;20.17
57885;BME280;43703;51.060;-0.086;2023-04-04T09:53:16;101333.25;;;20.73;23.05
57885;BME280;43703;51.060;-0.086;2023-04-04T09:55:40;101335.09;;;18.76;22.00
57885;BME280;43703;51.060;-0.086;2023-04-04T09:58:11;101333.84;;;20.06;21.73
57885;BME280;43703;51.060;-0.086;2023-04-04T10:00:31;101335.79;;;18.89;20.81
57885;BME280;43703;51.060;-0.086;2023-04-04T10:03:01;101334.74;;;19.79;22.28
57885;BME280;43703;51.060;-0.086;2023-04-04T10:05:23;101332.44;;;18.83;24.71
57885;BME280;43703;51.060;-0.086;2023-04-04T10:07:49;101327.20;;;20.91;22.81
57885;BME280;43703;51.060;-0.086;2023-04-04T10:10:15;101323.63;;;16.37;23.08
57885;BME280;43703;51.060;-0.086;2023-04-04T10:12:45;101328.13;;;18.51;24.28
57885;BME280;43703;51.060;-0.086;2023-04-04T10:15:07;101330.01;;;13.75;26.97
57885;BME280;43703;51.060;-0.086;2023-04-04T10:17:36;101323.73;;;19.24;23.60
57885;BME280;43703;51.060;-0.086;2023-04-04T10:19:59;101319.93;;;19.04;22.72
57885;BME280;43703;51.060;-0.086;2023-04-04T10:22:24;101314.46;;;20.16;22.36
57885;BME280;43703;51.060;-0.086;2023-04-04T10:24:50;101316.04;;;16.24;24.06
57885;BME280;43703;51.060;-0.086;2023-04-04T10:27:16;101313.34;;;16.45;28.36
57885;BME280;43703;51.060;-0.086;2023-04-04T10:29:41;101318.30;;;15.03;26.43
57885;BME280;43703;51.060;-0.086;2023-04-04T10:32:09;101312.85;;;13.81;28.24
57885;BME280;43703;51.060;-0.086;2023-04-04T10:34:39;101308.12;;;17.63;23.88
57885;BME280;43703;51.060;-0.086;2023-04-04T10:37:06;101307.85;;;19.00;22.44
57885;BME280;43703;51.060;-0.086;2023-04-04T10:39:26;101307.16;;;19.18;23.01
57885;BME280;43703;51.060;-0.086;2023-04-04T10:41:51;101299.57;;;20.73;20.54
57885;BME280;43703;51.060;-0.086;2023-04-04T10:44:23;101303.41;;;17.23;23.67
57885;BME280;43703;51.060;-0.086;2023-04-04T10:46:46;101302.67;;;15.63;27.30
57885;BME280;43703;51.060;-0.086;2023-04-04T10:49:09;101296.47;;;20.19;23.17
57885;BME280;43703;51.060;-0.086;2023-04-04T10:51:34;101298.44;;;18.03;23.99
57885;BME280;43703;51.060;-0.086;2023-04-04T10:53:59;101297.60;;;18.24;25.95
57885;BME280;43703;51.060;-0.086;2023-04-04T10:56:25;101288.65;;;20.71;20.31
57885;BME280;43703;51.060;-0.086;2023-04-04T11:01:18;101289.48;;;17.10;25.44
57885;BME280;43703;51.060;-0.086;2023-04-04T11:06:13;101285.11;;;19.95;22.48
57885;BME280;43703;51.060;-0.086;2023-04-04T11:08:39;101279.66;;;18.43;23.19
57885;BME280;43703;51.060;-0.086;2023-04-04T11:11:04;101280.47;;;15.91;24.58
57885;BME280;43703;51.060;-0.086;2023-04-04T11:13:31;101280.47;;;19.63;23.99
57885;BME280;43703;51.060;-0.086;2023-04-04T11:15:54;101282.64;;;17.21;28.03
57885;BME280;43703;51.060;-0.086;2023-04-04T11:18:19;101281.25;;;19.33;24.75
57885;BME280;43703;51.060;-0.086;2023-04-04T11:20:46;101277.11;;;22.01;22.29
57885;BME280;43703;51.060;-0.086;2023-04-04T11:23:14;101278.28;;;19.97;20.70
57885;BME280;43703;51.060;-0.086;2023-04-04T11:25:38;101275.68;;;15.55;26.45
57885;BME280;43703;51.060;-0.086;2023-04-04T11:28:07;101272.02;;;16.21;25.23
57885;BME280;43703;51.060;-0.086;2023-04-04T11:30:27;101264.63;;;17.31;27.46
57885;BME280;43703;51.060;-0.086;2023-04-04T11:32:56;101259.66;;;22.18;22.75
57885;BME280;43703;51.060;-0.086;2023-04-04T11:35:19;101263.18;;;18.51;26.43
57885;BME280;43703;51.060;-0.086;2023-04-04T11:40:11;101260.29;;;20.34;24.70
57885;BME280;43703;51.060;-0.086;2023-04-04T11:42:36;101258.72;;;20.81;25.49
57885;BME280;43703;51.060;-0.086;2023-04-04T11:45:04;101259.21;;;22.00;22.44
57885;BME280;43703;51.060;-0.086;2023-04-04T11:47:28;101263.32;;;17.06;24.13
57885;BME280;43703;51.060;-0.086;2023-04-04T11:49:55;101262.24;;;18.64;23.96
57885;BME280;43703;51.060;-0.086;2023-04-04T11:52:19;101263.38;;;16.90;25.33
57885;BME280;43703;51.060;-0.086;2023-04-04T11:54:46;101259.50;;;17.60;24.95
57885;BME280;43703;51.060;-0.086;2023-04-04T11:57:13;101261.90;;;15.18;26.39
57885;BME280;43703;51.060;-0.086;2023-04-04T11:59:39;101254.81;;;20.28;24.25
57885;BME280;43703;51.060;-0.086;2023-04-04T12:02:03;101258.44;;;17.97;26.50
57885;BME280;43703;51.060;-0.086;2023-04-04T12:04:29;101257.28;;;21.79;22.40
57885;BME280;43703;51.060;-0.086;2023-04-04T12:06:55;101256.96;;;21.73;21.26
57885;BME280;43703;51.060;-0.086;2023-04-04T12:09:21;101253.83;;;22.69;20.57
57885;BME280;43703;51.060;-0.086;2023-04-04T12:11:46;101252.02;;;22.42;21.02
57885;BME280;43703;51.060;-0.086;2023-04-04T12:14:16;101253.33;;;23.16;21.73
57885;BME280;43703;51.060;-0.086;2023-04-04T12:16:37;101247.37;;;20.23;22.03
57885;BME280;43703;51.060;-0.086;2023-04-04T12:19:03;101248.99;;;20.79;21.19
57885;BME280;43703;51.060;-0.086;2023-04-04T12:21:30;101247.52;;;21.41;20.13
57885;BME280;43703;51.060;-0.086;2023-04-04T12:23:56;101245.94;;;19.96;25.31
57885;BME280;43703;51.060;-0.086;2023-04-04T12:26:20;101250.96;;;17.52;26.15
57885;BME280;43703;51.060;-0.086;2023-04-04T12:28:46;101254.03;;;16.97;27.74
57885;BME280;43703;51.060;-0.086;2023-04-04T12:31:12;101248.79;;;15.31;28.43
57885;BME280;43703;51.060;-0.086;2023-04-04T12:33:38;101254.97;;;15.71;26.67
57885;BME280;43703;51.060;-0.086;2023-04-04T12:36:02;101251.82;;;15.36;28.96
57885;BME280;43703;51.060;-0.086;2023-04-04T12:38:27;101254.62;;;15.43;29.16
57885;BME280;43703;51.060;-0.086;2023-04-04T12:40:52;101249.94;;;15.65;31.06
57885;BME280;43703;51.060;-0.086;2023-04-04T12:43:18;101248.40;;;15.70;30.19
57885;BME280;43703;51.060;-0.086;2023-04-04T12:45:43;101250.54;;;15.39;26.87